sensor_id;sensor_type;location;lat;lon;timestamp;pressure;altitude;pressure_sealevel;temperature;humidity
60371;BME280;48550;40.588;49.684;2022-07-18T00:00:10;100971.63;;;25.98;72.76
60371;BME280;48550;40.588;49.684;2022-07-18T00:02:36;100979.38;;;25.96;74.18
60371;BME280;48550;40.588;49.684;2022-07-18T00:05:02;100978.09;;;25.94;75.24
60371;BME280;48550;40.588;49.684;2022-07-18T00:07:28;100980.19;;;25.97;76.24
60371;BME280;48550;40.588;49.684;2022-07-18T00:09:53;100981.50;;;25.91;77.80
60371;BME280;48550;40.588;49.684;2022-07-18T00:12:19;100987.53;;;25.84;79.42
60371;BME280;48550;40.588;49.684;2022-07-18T00:14:45;100993.03;;;25.84;80.06
60371;BME280;48550;40.588;49.684;2022-07-18T00:17:11;100985.28;;;25.78;80.41
60371;BME280;48550;40.588;49.684;2022-07-18T00:19:37;100984.19;;;25.70;81.25
60371;BME280;48550;40.588;49.684;2022-07-18T00:22:03;100974.16;;;25.65;81.56
60371;BME280;48550;40.588;49.684;2022-07-18T00:24:29;100973.81;;;25.58;80.54
60371;BME280;48550;40.588;49.684;2022-07-18T00:26:57;100985.47;;;25.55;80.35
60371;BME280;48550;40.588;49.684;2022-07-18T00:29:24;100973.50;;;25.60;80.79
60371;BME280;48550;40.588;49.684;2022-07-18T00:31:50;100975.44;;;25.59;81.60
60371;BME280;48550;40.588;49.684;2022-07-18T00:34:16;100979.97;;;25.55;82.12
60371;BME280;48550;40.588;49.684;2022-07-18T00:36:42;100990.50;;;25.53;83.63
60371;BME280;48550;40.588;49.684;2022-07-18T00:39:07;100995.84;;;25.50;84.42
60371;BME280;48550;40.588;49.684;2022-07-18T00:41:33;100993.91;;;25.42;84.57
60371;BME280;48550;40.588;49.684;2022-07-18T00:43:59;100999.56;;;25.37;85.69
60371;BME280;48550;40.588;49.684;2022-07-18T00:46:26;100998.44;;;25.38;85.90
60371;BME280;48550;40.588;49.684;2022-07-18T00:48:53;100998.28;;;25.34;84.70
60371;BME280;48550;40.588;49.684;2022-07-18T00:51:20;101000.06;;;25.30;84.95
60371;BME280;48550;40.588;49.684;2022-07-18T00:53:47;101005.69;;;25.25;85.11
60371;BME280;48550;40.588;49.684;2022-07-18T00:56:16;100999.22;;;25.21;86.15
60371;BME280;48550;40.588;49.684;2022-07-18T00:58:44;101000.84;;;25.22;85.39
60371;BME280;48550;40.588;49.684;2022-07-18T01:01:10;101001.19;;;25.29;84.21
60371;BME280;48550;40.588;49.684;2022-07-18T01:03:54;101004.28;;;25.27;84.84
60371;BME280;48550;40.588;49.684;2022-07-18T01:06:20;101002.16;;;25.33;85.53
60371;BME280;48550;40.588;49.684;2022-07-18T01:08:46;101004.75;;;25.29;85.47
60371;BME280;48550;40.588;49.684;2022-07-18T01:11:12;101004.28;;;25.27;86.69
60371;BME280;48550;40.588;49.684;2022-07-18T01:13:38;101011.19;;;25.25;87.08
60371;BME280;48550;40.588;49.684;2022-07-18T01:16:05;101010.25;;;25.29;86.63
60371;BME280;48550;40.588;49.684;2022-07-18T01:18:31;101007.97;;;25.23;86.04
60371;BME280;48550;40.588;49.684;2022-07-18T01:20:56;101021.06;;;25.26;86.35
60371;BME280;48550;40.588;49.684;2022-07-18T01:23:22;101016.69;;;25.25;86.23
60371;BME280;48550;40.588;49.684;2022-07-18T01:25:48;101009.59;;;25.15;87.19
60371;BME280;48550;40.588;49.684;2022-07-18T01:28:14;101013.94;;;25.16;88.13
60371;BME280;48550;40.588;49.684;2022-07-18T01:30:40;101014.91;;;25.12;88.20
60371;BME280;48550;40.588;49.684;2022-07-18T01:33:06;101025.41;;;25.10;89.21
60371;BME280;48550;40.588;49.684;2022-07-18T01:35:31;101021.38;;;25.07;89.56
60371;BME280;48550;40.588;49.684;2022-07-18T01:37:59;101020.41;;;25.12;90.04
60371;BME280;48550;40.588;49.684;2022-07-18T01:40:26;101022.03;;;25.13;90.08
60371;BME280;48550;40.588;49.684;2022-07-18T01:42:52;101017.81;;;25.15;90.50
60371;BME280;48550;40.588;49.684;2022-07-18T01:45:19;101023.47;;;25.19;90.48
60371;BME280;48550;40.588;49.684;2022-07-18T01:47:45;101031.09;;;25.30;91.12
60371;BME280;48550;40.588;49.684;2022-07-18T01:50:12;101016.88;;;25.37;91.33
60371;BME280;48550;40.588;49.684;2022-07-18T01:52:38;101023.81;;;25.43;91.37
60371;BME280;48550;40.588;49.684;2022-07-18T01:55:06;101031.41;;;25.46;91.48
60371;BME280;48550;40.588;49.684;2022-07-18T01:57:33;101030.28;;;25.47;91.64
60371;BME280;48550;40.588;49.684;2022-07-18T01:59:59;101031.72;;;25.53;92.42
60371;BME280;48550;40.588;49.684;2022-07-18T02:02:25;101028.81;;;25.58;91.37
60371;BME280;48550;40.588;49.684;2022-07-18T02:04:51;101033.00;;;25.64;90.95
60371;BME280;48550;40.588;49.684;2022-07-18T02:07:30;101032.84;;;25.70;90.75
60371;BME280;48550;40.588;49.684;2022-07-18T02:09:56;101032.84;;;25.78;90.37
60371;BME280;48550;40.588;49.684;2022-07-18T02:12:23;101027.63;;;25.85;88.96
60371;BME280;48550;40.588;49.684;2022-07-18T02:14:49;101033.91;;;26.03;87.17
60371;BME280;48550;40.588;49.684;2022-07-18T02:17:15;101035.31;;;26.18;86.38
60371;BME280;48550;40.588;49.684;2022-07-18T02:19:41;101036.09;;;26.27;84.91
60371;BME280;48550;40.588;49.684;2022-07-18T02:22:07;101047.22;;;26.39;82.71
60371;BME280;48550;40.588;49.684;2022-07-18T02:24:33;101043.44;;;26.52;80.55
60371;BME280;48550;40.588;49.684;2022-07-18T02:26:59;101047.56;;;26.67;79.69
60371;BME280;48550;40.588;49.684;2022-07-18T02:29:25;101043.91;;;26.84;79.31
60371;BME280;48550;40.588;49.684;2022-07-18T02:31:52;101042.69;;;27.02;78.47
60371;BME280;48550;40.588;49.684;2022-07-18T02:34:18;101042.41;;;27.16;77.22
60371;BME280;48550;40.588;49.684;2022-07-18T02:36:44;101039.09;;;27.43;74.88
60371;BME280;48550;40.588;49.684;2022-07-18T02:39:10;101044.97;;;27.63;74.34
60371;BME280;48550;40.588;49.684;2022-07-18T02:41:36;101027.97;;;27.73;74.29
60371;BME280;48550;40.588;49.684;2022-07-18T02:44:03;101036.50;;;27.80;72.68
60371;BME280;48550;40.588;49.684;2022-07-18T02:46:29;101027.78;;;27.90;69.68
60371;BME280;48550;40.588;49.684;2022-07-18T02:48:55;101038.84;;;28.02;67.75
60371;BME280;48550;40.588;49.684;2022-07-18T02:51:21;101034.50;;;28.13;66.07
60371;BME280;48550;40.588;49.684;2022-07-18T02:53:46;101034.09;;;28.36;66.31
60371;BME280;48550;40.588;49.684;2022-07-18T02:56:12;101037.19;;;28.46;66.90
60371;BME280;48550;40.588;49.684;2022-07-18T02:58:38;101034.31;;;28.55;66.39
60371;BME280;48550;40.588;49.684;2022-07-18T03:01:04;101031.91;;;28.54;67.70
60371;BME280;48550;40.588;49.684;2022-07-18T03:03:29;101035.34;;;28.63;70.40
60371;BME280;48550;40.588;49.684;2022-07-18T03:05:55;101029.94;;;28.66;67.61
60371;BME280;48550;40.588;49.684;2022-07-18T03:08:21;101033.38;;;28.75;68.03
60371;BME280;48550;40.588;49.684;2022-07-18T03:10:47;101033.84;;;29.02;68.76
60371;BME280;48550;40.588;49.684;2022-07-18T03:13:12;101033.50;;;29.31;66.99
60371;BME280;48550;40.588;49.684;2022-07-18T03:15:39;101031.16;;;29.89;64.35
60371;BME280;48550;40.588;49.684;2022-07-18T03:18:05;101042.25;;;29.89;62.98
60371;BME280;48550;40.588;49.684;2022-07-18T03:20:31;101035.72;;;29.82;63.16
60371;BME280;48550;40.588;49.684;2022-07-18T03:22:57;101046.97;;;29.61;66.11
60371;BME280;48550;40.588;49.684;2022-07-18T03:25:23;101042.66;;;29.48;68.44
60371;BME280;48550;40.588;49.684;2022-07-18T03:27:49;101040.56;;;29.57;67.91
60371;BME280;48550;40.588;49.684;2022-07-18T03:30:15;101045.94;;;29.65;68.54
60371;BME280;48550;40.588;49.684;2022-07-18T03:32:40;101048.44;;;29.42;69.38
60371;BME280;48550;40.588;49.684;2022-07-18T03:35:06;101046.28;;;29.64;68.67
60371;BME280;48550;40.588;49.684;2022-07-18T03:37:32;101034.00;;;29.77;68.46
60371;BME280;48550;40.588;49.684;2022-07-18T03:39:58;101045.56;;;29.67;67.63
60371;BME280;48550;40.588;49.684;2022-07-18T03:42:24;101032.00;;;30.06;67.90
60371;BME280;48550;40.588;49.684;2022-07-18T03:44:49;101043.06;;;30.37;66.73
60371;BME280;48550;40.588;49.684;2022-07-18T03:47:15;101035.97;;;31.41;63.30
60371;BME280;48550;40.588;49.684;2022-07-18T03:49:41;101042.50;;;32.63;58.94
60371;BME280;48550;40.588;49.684;2022-07-18T03:52:07;101041.63;;;32.59;58.04
60371;BME280;48550;40.588;49.684;2022-07-18T03:54:32;101043.56;;;31.86;60.78
60371;BME280;48550;40.588;49.684;2022-07-18T03:56:58;101050.97;;;31.21;63.09
60371;BME280;48550;40.588;49.684;2022-07-18T03:59:24;101040.94;;;30.97;64.01
60371;BME280;48550;40.588;49.684;2022-07-18T04:01:50;101036.16;;;31.94;60.56
60371;BME280;48550;40.588;49.684;2022-07-18T04:04:15;101044.41;;;33.12;54.90
60371;BME280;48550;40.588;49.684;2022-07-18T04:06:41;101044.22;;;34.42;50.51
60371;BME280;48550;40.588;49.684;2022-07-18T04:09:07;101061.94;;;35.41;47.28
60371;BME280;48550;40.588;49.684;2022-07-18T04:11:33;101050.16;;;35.90;45.01
60371;BME280;48550;40.588;49.684;2022-07-18T04:13:58;101053.19;;;35.39;47.96
60371;BME280;48550;40.588;49.684;2022-07-18T04:16:24;101054.13;;;36.28;44.48
60371;BME280;48550;40.588;49.684;2022-07-18T04:18:50;101054.56;;;36.62;42.89
60371;BME280;48550;40.588;49.684;2022-07-18T04:21:16;101054.13;;;35.92;45.60
60371;BME280;48550;40.588;49.684;2022-07-18T04:23:42;101047.50;;;37.45;42.02
60371;BME280;48550;40.588;49.684;2022-07-18T04:26:08;101046.72;;;37.44;40.24
60371;BME280;48550;40.588;49.684;2022-07-18T04:28:34;101045.19;;;37.29;41.60
60371;BME280;48550;40.588;49.684;2022-07-18T04:31:00;101052.88;;;37.88;40.33
60371;BME280;48550;40.588;49.684;2022-07-18T04:33:26;101052.31;;;37.44;40.22
60371;BME280;48550;40.588;49.684;2022-07-18T04:35:52;101050.78;;;38.02;40.15
60371;BME280;48550;40.588;49.684;2022-07-18T04:38:18;101049.78;;;38.71;39.13
60371;BME280;48550;40.588;49.684;2022-07-18T04:40:44;101039.47;;;38.17;39.11
60371;BME280;48550;40.588;49.684;2022-07-18T04:43:10;101037.59;;;38.44;36.74
60371;BME280;48550;40.588;49.684;2022-07-18T04:45:36;101039.50;;;37.47;38.70
60371;BME280;48550;40.588;49.684;2022-07-18T04:48:04;101041.94;;;37.41;39.19
60371;BME280;48550;40.588;49.684;2022-07-18T04:50:30;101040.84;;;37.94;38.30
60371;BME280;48550;40.588;49.684;2022-07-18T04:52:57;101027.06;;;38.14;38.50
60371;BME280;48550;40.588;49.684;2022-07-18T04:55:24;101029.66;;;38.39;37.71
60371;BME280;48550;40.588;49.684;2022-07-18T04:57:51;101027.06;;;38.14;37.65
60371;BME280;48550;40.588;49.684;2022-07-18T05:00:23;101027.16;;;38.03;38.12
60371;BME280;48550;40.588;49.684;2022-07-18T05:02:51;101017.16;;;38.47;37.09
60371;BME280;48550;40.588;49.684;2022-07-18T05:05:18;101015.22;;;37.89;37.73
60371;BME280;48550;40.588;49.684;2022-07-18T05:07:45;101022.28;;;38.93;36.72
60371;BME280;48550;40.588;49.684;2022-07-18T05:10:13;101014.31;;;38.88;36.29
60371;BME280;48550;40.588;49.684;2022-07-18T05:12:40;101017.63;;;39.44;35.32
60371;BME280;48550;40.588;49.684;2022-07-18T05:15:11;101027.91;;;38.52;36.45
60371;BME280;48550;40.588;49.684;2022-07-18T05:17:37;101024.63;;;38.98;35.85
60371;BME280;48550;40.588;49.684;2022-07-18T05:20:05;101021.44;;;38.18;37.36
60371;BME280;48550;40.588;49.684;2022-07-18T05:22:32;101019.28;;;37.84;38.28
60371;BME280;48550;40.588;49.684;2022-07-18T05:24:58;101013.59;;;39.49;35.73
60371;BME280;48550;40.588;49.684;2022-07-18T05:27:23;101018.03;;;39.73;34.85
60371;BME280;48550;40.588;49.684;2022-07-18T05:29:49;101023.00;;;38.63;34.82
60371;BME280;48550;40.588;49.684;2022-07-18T05:32:15;101014.63;;;37.56;37.12
60371;BME280;48550;40.588;49.684;2022-07-18T05:34:41;101011.25;;;37.24;37.09
60371;BME280;48550;40.588;49.684;2022-07-18T05:37:06;101017.28;;;38.33;35.15
60371;BME280;48550;40.588;49.684;2022-07-18T05:39:32;101005.06;;;36.31;38.89
60371;BME280;48550;40.588;49.684;2022-07-18T05:41:58;101017.03;;;36.17;39.11
60371;BME280;48550;40.588;49.684;2022-07-18T05:44:24;101010.94;;;36.93;38.23
60371;BME280;48550;40.588;49.684;2022-07-18T05:46:50;101016.56;;;36.75;37.62
60371;BME280;48550;40.588;49.684;2022-07-18T05:49:15;101013.41;;;36.20;37.76
60371;BME280;48550;40.588;49.684;2022-07-18T05:51:41;101007.84;;;36.02;38.07
60371;BME280;48550;40.588;49.684;2022-07-18T05:54:07;101011.84;;;36.37;37.83
60371;BME280;48550;40.588;49.684;2022-07-18T05:56:34;101006.25;;;36.44;38.40
60371;BME280;48550;40.588;49.684;2022-07-18T05:58:59;101006.75;;;37.40;36.35
60371;BME280;48550;40.588;49.684;2022-07-18T06:01:25;101008.13;;;36.97;37.43
60371;BME280;48550;40.588;49.684;2022-07-18T06:03:51;101005.81;;;38.20;36.35
60371;BME280;48550;40.588;49.684;2022-07-18T06:06:17;100999.38;;;38.23;35.00
60371;BME280;48550;40.588;49.684;2022-07-18T06:08:46;101000.97;;;36.81;36.39
60371;BME280;48550;40.588;49.684;2022-07-18T06:11:12;100998.28;;;35.96;37.76
60371;BME280;48550;40.588;49.684;2022-07-18T06:13:39;100999.47;;;35.81;37.68
60371;BME280;48550;40.588;49.684;2022-07-18T06:16:06;100998.28;;;35.96;36.97
60371;BME280;48550;40.588;49.684;2022-07-18T06:18:32;101001.84;;;36.50;36.15
60371;BME280;48550;40.588;49.684;2022-07-18T06:21:03;100995.06;;;36.15;37.79
60371;BME280;48550;40.588;49.684;2022-07-18T06:23:29;100993.47;;;35.82;38.22
60371;BME280;48550;40.588;49.684;2022-07-18T06:25:56;100989.47;;;35.76;36.43
60371;BME280;48550;40.588;49.684;2022-07-18T06:28:22;100983.44;;;36.63;36.22
60371;BME280;48550;40.588;49.684;2022-07-18T06:30:48;100987.44;;;36.58;36.25
60371;BME280;48550;40.588;49.684;2022-07-18T06:33:14;100984.69;;;36.48;36.14
60371;BME280;48550;40.588;49.684;2022-07-18T06:35:40;100981.72;;;37.01;35.22
60371;BME280;48550;40.588;49.684;2022-07-18T06:38:06;100982.28;;;36.32;36.54
60371;BME280;48550;40.588;49.684;2022-07-18T06:40:32;100979.50;;;36.21;36.73
60371;BME280;48550;40.588;49.684;2022-07-18T06:42:58;100977.50;;;36.22;36.98
60371;BME280;48550;40.588;49.684;2022-07-18T06:45:23;100984.88;;;37.80;34.99
60371;BME280;48550;40.588;49.684;2022-07-18T06:47:49;100976.22;;;36.76;36.15
60371;BME280;48550;40.588;49.684;2022-07-18T06:50:16;100976.69;;;36.50;36.30
60371;BME280;48550;40.588;49.684;2022-07-18T06:52:43;100973.03;;;36.71;36.33
60371;BME280;48550;40.588;49.684;2022-07-18T06:55:10;100979.00;;;36.83;35.54
60371;BME280;48550;40.588;49.684;2022-07-18T06:57:37;100980.31;;;36.04;37.01
60371;BME280;48550;40.588;49.684;2022-07-18T07:00:04;100973.44;;;35.34;40.43
60371;BME280;48550;40.588;49.684;2022-07-18T07:02:30;100965.50;;;36.36;38.12
60371;BME280;48550;40.588;49.684;2022-07-18T07:04:56;100973.00;;;36.74;37.85
60371;BME280;48550;40.588;49.684;2022-07-18T07:07:22;100971.44;;;35.42;40.14
60371;BME280;48550;40.588;49.684;2022-07-18T07:09:48;100973.84;;;35.43;42.00
60371;BME280;48550;40.588;49.684;2022-07-18T07:12:13;100966.63;;;35.31;42.47
60371;BME280;48550;40.588;49.684;2022-07-18T07:14:39;100978.16;;;35.30;42.89
60371;BME280;48550;40.588;49.684;2022-07-18T07:17:05;100967.53;;;35.89;41.75
60371;BME280;48550;40.588;49.684;2022-07-18T07:19:31;100973.91;;;36.04;41.09
60371;BME280;48550;40.588;49.684;2022-07-18T07:21:57;100969.91;;;36.29;40.64
60371;BME280;48550;40.588;49.684;2022-07-18T07:24:23;100968.19;;;35.22;43.31
60371;BME280;48550;40.588;49.684;2022-07-18T07:26:48;100967.53;;;35.89;41.56
60371;BME280;48550;40.588;49.684;2022-07-18T07:29:17;100967.50;;;35.75;43.15
60371;BME280;48550;40.588;49.684;2022-07-18T07:31:42;100961.53;;;36.33;42.70
60371;BME280;48550;40.588;49.684;2022-07-18T07:34:09;100958.38;;;35.88;40.91
60371;BME280;48550;40.588;49.684;2022-07-18T07:36:35;100955.47;;;36.63;40.47
60371;BME280;48550;40.588;49.684;2022-07-18T07:39:01;100960.75;;;36.11;40.49
60371;BME280;48550;40.588;49.684;2022-07-18T07:41:27;100947.19;;;35.88;43.40
60371;BME280;48550;40.588;49.684;2022-07-18T07:43:53;100945.53;;;35.48;42.56
60371;BME280;48550;40.588;49.684;2022-07-18T07:46:19;100941.22;;;34.64;45.84
60371;BME280;48550;40.588;49.684;2022-07-18T07:48:44;100960.59;;;33.88;48.06
60371;BME280;48550;40.588;49.684;2022-07-18T07:51:13;100943.47;;;33.86;47.56
60371;BME280;48550;40.588;49.684;2022-07-18T07:53:39;100943.56;;;34.55;44.67
60371;BME280;48550;40.588;49.684;2022-07-18T07:56:05;100942.88;;;34.79;43.95
60371;BME280;48550;40.588;49.684;2022-07-18T07:58:31;100943.00;;;34.28;44.84
60371;BME280;48550;40.588;49.684;2022-07-18T08:00:57;100942.09;;;33.65;45.86
60371;BME280;48550;40.588;49.684;2022-07-18T08:03:23;100942.59;;;33.04;48.67
60371;BME280;48550;40.588;49.684;2022-07-18T08:05:50;100931.50;;;31.72;53.29
60371;BME280;48550;40.588;49.684;2022-07-18T08:08:17;100930.41;;;31.99;50.82
60371;BME280;48550;40.588;49.684;2022-07-18T08:10:44;100926.91;;;32.29;50.83
60371;BME280;48550;40.588;49.684;2022-07-18T08:13:11;100933.00;;;32.15;51.38
60371;BME280;48550;40.588;49.684;2022-07-18T08:15:37;100934.34;;;31.98;51.10
60371;BME280;48550;40.588;49.684;2022-07-18T08:18:03;100930.94;;;31.85;54.19
60371;BME280;48550;40.588;49.684;2022-07-18T08:20:29;100926.53;;;31.61;50.83
60371;BME280;48550;40.588;49.684;2022-07-18T08:23:02;100920.44;;;31.52;53.74
60371;BME280;48550;40.588;49.684;2022-07-18T08:25:29;100931.88;;;31.70;52.92
60371;BME280;48550;40.588;49.684;2022-07-18T08:27:56;100927.13;;;31.71;51.42
60371;BME280;48550;40.588;49.684;2022-07-18T08:30:23;100919.03;;;31.62;52.07
60371;BME280;48550;40.588;49.684;2022-07-18T08:32:49;100914.34;;;31.43;52.00
60371;BME280;48550;40.588;49.684;2022-07-18T08:35:15;100909.59;;;31.44;51.20
60371;BME280;48550;40.588;49.684;2022-07-18T08:37:41;100908.97;;;31.54;53.25
60371;BME280;48550;40.588;49.684;2022-07-18T08:40:07;100901.22;;;31.63;52.40
60371;BME280;48550;40.588;49.684;2022-07-18T08:42:34;100894.69;;;31.52;52.42
60371;BME280;48550;40.588;49.684;2022-07-18T08:45:00;100900.34;;;31.59;52.45
60371;BME280;48550;40.588;49.684;2022-07-18T08:47:28;100893.75;;;31.67;51.79
60371;BME280;48550;40.588;49.684;2022-07-18T08:49:54;100894.16;;;31.69;52.93
60371;BME280;48550;40.588;49.684;2022-07-18T08:52:20;100880.75;;;31.71;53.46
60371;BME280;48550;40.588;49.684;2022-07-18T08:54:46;100893.63;;;31.37;53.34
60371;BME280;48550;40.588;49.684;2022-07-18T08:57:15;100902.63;;;31.53;55.03
60371;BME280;48550;40.588;49.684;2022-07-18T08:59:41;100899.16;;;31.60;54.02
60371;BME280;48550;40.588;49.684;2022-07-18T09:02:07;100897.41;;;31.71;53.39
60371;BME280;48550;40.588;49.684;2022-07-18T09:04:40;100894.06;;;31.85;54.16
60371;BME280;48550;40.588;49.684;2022-07-18T09:07:08;100891.59;;;31.57;53.07
60371;BME280;48550;40.588;49.684;2022-07-18T09:09:37;100898.25;;;31.52;52.94
60371;BME280;48550;40.588;49.684;2022-07-18T09:12:08;100895.97;;;31.58;53.41
60371;BME280;48550;40.588;49.684;2022-07-18T09:14:43;100893.56;;;31.56;54.54
60371;BME280;48550;40.588;49.684;2022-07-18T09:17:22;100897.59;;;31.17;53.99
60371;BME280;48550;40.588;49.684;2022-07-18T09:20:03;100895.41;;;30.87;56.02
60371;BME280;48550;40.588;49.684;2022-07-18T09:22:32;100894.53;;;31.03;56.98
60371;BME280;48550;40.588;49.684;2022-07-18T09:25:07;100883.53;;;30.87;56.03
60371;BME280;48550;40.588;49.684;2022-07-18T09:27:45;100878.78;;;30.49;59.23
60371;BME280;48550;40.588;49.684;2022-07-18T09:32:45;100878.16;;;30.75;57.75
60371;BME280;48550;40.588;49.684;2022-07-18T09:35:20;100881.63;;;30.91;57.46
60371;BME280;48550;40.588;49.684;2022-07-18T09:38:04;100888.19;;;31.02;57.49
60371;BME280;48550;40.588;49.684;2022-07-18T09:40:35;100898.13;;;30.84;58.75
60371;BME280;48550;40.588;49.684;2022-07-18T09:43:06;100895.72;;;30.82;57.40
60371;BME280;48550;40.588;49.684;2022-07-18T09:45:33;100892.53;;;30.45;59.88
60371;BME280;48550;40.588;49.684;2022-07-18T09:48:02;100897.09;;;30.38;62.39
60371;BME280;48550;40.588;49.684;2022-07-18T09:51:11;100897.03;;;30.34;61.47
60371;BME280;48550;40.588;49.684;2022-07-18T09:53:31;100888.63;;;30.30;61.60
60371;BME280;48550;40.588;49.684;2022-07-18T09:56:00;100899.78;;;30.34;61.70
60371;BME280;48550;40.588;49.684;2022-07-18T09:58:31;100882.00;;;30.35;62.30
60371;BME280;48550;40.588;49.684;2022-07-18T10:01:00;100884.69;;;30.47;62.23
60371;BME280;48550;40.588;49.684;2022-07-18T10:03:26;100880.25;;;30.62;62.17
60371;BME280;48550;40.588;49.684;2022-07-18T10:05:54;100883.47;;;30.64;59.51
60371;BME280;48550;40.588;49.684;2022-07-18T10:08:23;100884.09;;;30.57;58.94
60371;BME280;48550;40.588;49.684;2022-07-18T10:10:51;100880.38;;;30.50;60.32
60371;BME280;48550;40.588;49.684;2022-07-18T10:13:18;100886.53;;;30.43;61.84
60371;BME280;48550;40.588;49.684;2022-07-18T10:15:46;100878.28;;;30.27;62.46
60371;BME280;48550;40.588;49.684;2022-07-18T10:18:14;100881.84;;;30.28;62.82
60371;BME280;48550;40.588;49.684;2022-07-18T10:23:34;100871.91;;;30.08;61.98
60371;BME280;48550;40.588;49.684;2022-07-18T10:26:15;100879.94;;;30.13;64.39
60371;BME280;48550;40.588;49.684;2022-07-18T10:29:13;100876.00;;;30.14;64.39
60371;BME280;48550;40.588;49.684;2022-07-18T10:31:42;100880.59;;;30.06;65.64
60371;BME280;48550;40.588;49.684;2022-07-18T10:34:31;100873.69;;;30.16;65.24
60371;BME280;48550;40.588;49.684;2022-07-18T10:39:36;100874.53;;;29.85;65.03
60371;BME280;48550;40.588;49.684;2022-07-18T10:57:37;100870.31;;;30.07;60.59
60371;BME280;48550;40.588;49.684;2022-07-18T11:00:14;100872.00;;;30.11;59.95
60371;BME280;48550;40.588;49.684;2022-07-18T11:02:48;100859.69;;;30.09;60.30
60371;BME280;48550;40.588;49.684;2022-07-18T11:16:23;100871.72;;;30.00;53.73
60371;BME280;48550;40.588;49.684;2022-07-18T11:21:24;100861.22;;;30.25;54.98
60371;BME280;48550;40.588;49.684;2022-07-18T11:24:15;100856.56;;;30.29;52.66
60371;BME280;48550;40.588;49.684;2022-07-18T11:26:46;100850.53;;;30.43;53.91
60371;BME280;48550;40.588;49.684;2022-07-18T11:29:15;100853.81;;;30.29;55.03
60371;BME280;48550;40.588;49.684;2022-07-18T11:31:55;100857.66;;;30.25;53.88
60371;BME280;48550;40.588;49.684;2022-07-18T11:34:23;100857.16;;;30.19;54.30
60371;BME280;48550;40.588;49.684;2022-07-18T11:36:49;100853.84;;;30.14;56.25
60371;BME280;48550;40.588;49.684;2022-07-18T11:39:27;100860.56;;;30.13;56.97
60371;BME280;48550;40.588;49.684;2022-07-18T11:41:54;100856.22;;;29.80;58.34
60371;BME280;48550;40.588;49.684;2022-07-18T11:44:20;100856.94;;;29.61;60.89
60371;BME280;48550;40.588;49.684;2022-07-18T11:47:24;100853.00;;;29.62;60.46
60371;BME280;48550;40.588;49.684;2022-07-18T11:49:55;100857.28;;;29.60;61.85
60371;BME280;48550;40.588;49.684;2022-07-18T11:52:21;100857.56;;;29.70;61.81
60371;BME280;48550;40.588;49.684;2022-07-18T11:54:47;100859.63;;;29.73;62.85
60371;BME280;48550;40.588;49.684;2022-07-18T11:57:13;100860.06;;;29.76;62.23
60371;BME280;48550;40.588;49.684;2022-07-18T11:59:50;100853.44;;;29.33;64.89
60371;BME280;48550;40.588;49.684;2022-07-18T12:02:16;100861.91;;;29.24;63.46
60371;BME280;48550;40.588;49.684;2022-07-18T12:04:42;100860.38;;;29.27;66.00
60371;BME280;48550;40.588;49.684;2022-07-18T12:09:43;100861.47;;;29.38;65.06
60371;BME280;48550;40.588;49.684;2022-07-18T12:12:14;100860.16;;;29.48;65.75
60371;BME280;48550;40.588;49.684;2022-07-18T12:14:40;100855.34;;;29.60;63.49
60371;BME280;48550;40.588;49.684;2022-07-18T12:17:06;100862.81;;;29.60;64.99
60371;BME280;48550;40.588;49.684;2022-07-18T12:24:37;100857.75;;;29.46;62.59
60371;BME280;48550;40.588;49.684;2022-07-18T12:27:50;100857.91;;;29.37;62.38
60371;BME280;48550;40.588;49.684;2022-07-18T12:30:11;100860.03;;;29.28;61.71
60371;BME280;48550;40.588;49.684;2022-07-18T12:32:47;100869.56;;;29.15;65.75
60371;BME280;48550;40.588;49.684;2022-07-18T12:37:58;100867.31;;;29.05;64.94
60371;BME280;48550;40.588;49.684;2022-07-18T12:40:37;100861.69;;;29.01;63.65
60371;BME280;48550;40.588;49.684;2022-07-18T12:43:10;100862.63;;;28.93;66.12
60371;BME280;48550;40.588;49.684;2022-07-18T12:45:37;100857.75;;;28.74;67.18
60371;BME280;48550;40.588;49.684;2022-07-18T12:48:05;100857.13;;;28.81;68.27
60371;BME280;48550;40.588;49.684;2022-07-18T12:50:31;100852.28;;;28.90;68.85
60371;BME280;48550;40.588;49.684;2022-07-18T12:52:57;100865.28;;;28.90;68.89
60371;BME280;48550;40.588;49.684;2022-07-18T12:55:24;100858.06;;;28.85;67.57
60371;BME280;48550;40.588;49.684;2022-07-18T12:57:50;100861.38;;;28.91;69.21
60371;BME280;48550;40.588;49.684;2022-07-18T13:00:15;100866.09;;;28.90;69.00
60371;BME280;48550;40.588;49.684;2022-07-18T13:02:45;100868.53;;;28.79;67.37
60371;BME280;48550;40.588;49.684;2022-07-18T13:05:11;100856.13;;;28.73;67.76
60371;BME280;48550;40.588;49.684;2022-07-18T13:07:37;100859.91;;;28.81;70.00
60371;BME280;48550;40.588;49.684;2022-07-18T13:10:03;100861.06;;;28.80;69.83
60371;BME280;48550;40.588;49.684;2022-07-18T13:12:29;100850.00;;;28.80;70.42
60371;BME280;48550;40.588;49.684;2022-07-18T13:14:56;100860.25;;;28.79;70.75
60371;BME280;48550;40.588;49.684;2022-07-18T13:17:21;100860.94;;;28.76;68.97
60371;BME280;48550;40.588;49.684;2022-07-18T13:19:47;100858.44;;;28.71;70.28
60371;BME280;48550;40.588;49.684;2022-07-18T13:22:14;100854.78;;;28.67;71.73
60371;BME280;48550;40.588;49.684;2022-07-18T13:24:40;100860.16;;;28.48;68.56
60371;BME280;48550;40.588;49.684;2022-07-18T13:27:06;100857.63;;;28.43;70.08
60371;BME280;48550;40.588;49.684;2022-07-18T13:29:32;100851.44;;;28.34;71.78